Latest Weather Observations for Cape Otway

IDV60801

Issued at 9:32 am EDT Friday 31 March 2017 (issued every 30 minutes, with the page automatically refreshed every 10 minutes)

About weather observations | Map of weather stations | Latest weather observations for VIC | Other Formats
Station Details ID: 090015 Name: CAPE OTWAY LIGHTHOUSE Lat: -38.86 Lon: 143.51 Height: 82.0 m
Data from the previous 72 hours. | See also: Recent months at Cape Otway
Date/Time
EDT
Temp
°C
App
Temp
°C
Dew
Point
°C
Rel
Hum
%
Delta-T
°C
Wind Press
QNH
hPa
Press
MSL
hPa
Rain since
9am
mm
Dir  Spd
km/h
Gust
km/h
Spd
kts
Gust
kts
31/09:30am 12.8 10.5 7.5 70 2.6 NW 9 15 5 8 1022.7 1022.6 0.0
31/09:00am 12.3 9.4 6.6 68 2.7 NNW 11 17 6 9 1022.6 1022.5 0.4
31/08:30am 12.3 8.9 5.7 64 3.1 NNW 13 17 7 9 1022.2 1022.1 0.4
31/08:00am 13.7 9.5 5.6 58 3.8 SW 17 24 9 13 1021.9 1021.8 0.4
31/07:30am 13.5 9.9 5.2 57 3.9 SSW 13 20 7 11 1021.6 1021.5 0.4
31/07:00am 13.5 9.4 4.6 55 4.1 SSW 15 22 8 12 1021.2 1021.1 0.4
31/06:30am 13.4 9.0 4.6 55 4.1 SW 17 24 9 13 1020.7 1020.6 0.4
31/06:00am 13.4 8.9 4.3 54 4.2 SSW 17 24 9 13 1020.6 1020.5 0.4
31/05:30am 13.4 8.7 5.1 57 3.9 SSW 19 28 10 15 1020.5 1020.4 0.4
31/05:00am 13.2 8.9 5.1 58 3.8 SSW 17 24 9 13 1020.6 1020.5 0.4
31/04:30am 13.3 9.4 5.2 58 3.8 SSW 15 22 8 12 1020.6 1020.5 0.4
31/04:00am 13.1 9.2 5.5 60 3.6 SSW 15 19 8 10 1020.4 1020.3 0.4
31/03:30am 13.1 9.6 5.3 59 3.6 SSW 13 20 7 11 1020.7 1020.6 0.4
31/03:00am 13.4 9.4 6.5 63 3.3 SW 17 24 9 13 1020.9 1020.8 0.4
31/02:30am 13.1 9.1 5.0 58 3.8 SSW 15 22 8 12 1021.2 1021.1 0.4
31/02:00am 13.2 9.4 5.6 60 3.6 SSW 15 24 8 13 1021.4 1021.3 0.4
31/01:30am 13.1 8.7 4.5 56 4.0 SSW 17 22 9 12 1021.6 1021.5 0.4
31/01:00am 13.2 8.3 4.9 57 3.8 SSW 20 30 11 16 1022.0 1021.9 0.4
31/12:30am 13.1 8.1 4.8 57 3.8 SSW 20 32 11 17 1022.1 1022.0 0.4
31/12:00am 13.1 9.3 6.0 62 3.4 SSW 15 24 8 13 1022.3 1022.2 0.4
 
Date/Time
EDT
Temp
°C
App
Temp
°C
Dew
Point
°C
Rel
Hum
%
Delta-T
°C
Wind Press
QNH
hPa
Press
MSL
hPa
Rain since
9am
mm
Dir  Spd
km/h
Gust
km/h
Spd
kts
Gust
kts
30/11:30pm 12.9 8.8 6.0 63 3.3 SSW 17 24 9 13 1022.6 1022.5 0.4
30/11:00pm 12.7 6.2 6.7 67 2.9 SSW 30 43 16 23 1022.6 1022.5 0.4
30/10:30pm 13.5 7.4 4.9 56 4.0 SSW 26 33 14 18 1022.9 1022.8 0.4
30/10:00pm 13.7 6.8 4.8 55 4.1 SSW 30 41 16 22 1022.7 1022.6 0.4
30/09:36pm 13.3 7.1 6.2 62 3.4 SSW 28 46 15 25 1022.7 1022.6 0.4
30/09:30pm 13.5 6.7 6.8 64 3.2 SSW 32 46 17 25 1022.5 1022.4 0.4
30/09:00pm 13.4 7.4 5.3 58 3.8 SSW 26 35 14 19 1022.6 1022.5 0.4
30/08:30pm 13.5 7.1 5.4 58 3.8 SSW 28 41 15 22 1022.3 1022.2 0.4
30/08:00pm 13.2 5.9 4.4 55 4.0 SSW 32 41 17 22 1021.8 1021.7 0.4
30/07:30pm 12.8 5.3 6.4 65 3.1 SSW 35 48 19 26 1021.5 1021.4 0.4
30/07:00pm 13.2 4.7 7.0 66 3.0 SSW 41 50 22 27 1020.9 1020.8 0.4
30/06:51pm 13.4 6.6 7.0 65 3.1 SSW 32 50 17 27 1020.8 1020.7 0.4
30/06:30pm 13.7 7.5 6.3 61 3.6 SW 28 43 15 23 1020.7 1020.6 0.4
30/06:00pm 13.7 8.0 6.6 62 3.4 SSW 26 35 14 19 1020.4 1020.3 0.4
30/05:30pm 12.7 5.6 8.0 73 2.3 SSW 35 54 19 29 1020.3 1020.2 0.4
30/05:19pm 13.1 4.7 7.3 68 2.8 SW 41 65 22 35 1019.8 1019.7 0.4
30/05:12pm 13.8 7.7 6.4 61 3.6 SSW 28 46 15 25 1019.9 1019.8 0.4
30/05:00pm 13.9 7.9 7.2 64 3.3 SSW 28 37 15 20 1019.8 1019.7 0.4
30/04:30pm 14.3 7.4 6.6 60 3.7 SW 32 44 17 24 1019.6 1019.5 0.4
30/04:06pm 14.5 7.7 7.1 61 3.6 SW 32 50 17 27 1019.3 1019.1 0.4
30/04:00pm 14.7 7.0 7.0 60 3.8 SW 37 46 20 25 1019.2 1019.0 0.4
30/03:30pm 14.1 7.3 6.9 62 3.5 SSW 32 44 17 24 1019.0 1018.8 0.4
30/03:00pm 15.5 8.7 7.0 57 4.2 SW 32 41 17 22 1018.7 1018.5 0.4
30/02:30pm 15.0 8.7 7.5 61 3.7 SW 30 41 16 22 1018.8 1018.6 0.4
30/02:00pm 14.5 7.6 6.3 58 4.0 SSW 32 44 17 24 1018.7 1018.5 0.4
30/01:30pm 14.5 8.1 8.5 67 3.0 SW 32 43 17 23 1018.7 1018.5 0.4
30/01:00pm 12.3 3.4 7.6 73 2.3 SW 44 59 24 32 1018.8 1018.6 0.4
30/12:30pm 12.6 7.1 7.5 71 2.5 WSW 26 43 14 23 1018.6 1018.4 0.2
30/12:07pm 14.5 7.7 7.8 64 3.3 SW 33 52 18 28 1018.2 1018.0 0.2
30/12:00pm 14.7 7.6 6.5 58 4.0 SW 33 44 18 24 1018.3 1018.1 0.2
30/11:30am 14.8 7.8 6.1 56 4.2 SW 32 43 17 23 1018.2 1018.0 0.2
30/11:00am 13.6 10.1 8.7 72 2.5 SSW 17 28 9 15 1018.1 1017.9 0.2
30/10:30am 14.5 7.6 7.3 62 3.6 SW 33 57 18 31 1017.6 1017.4 0.0
30/10:00am 14.2 7.0 6.1 58 3.9 SW 33 44 18 24 1017.5 1017.3 0.0
30/09:40am 14.5 7.3 5.8 56 4.2 SW 33 52 18 28 1017.1 1016.9 0.0
30/09:30am 14.2 6.8 3.9 50 4.7 SW 32 41 17 22 1017.0 1016.8 0.0
30/09:00am 14.1 5.9 6.5 60 3.7 SW 39 52 21 28 1016.5 1016.3 7.0
30/08:30am 13.9 7.1 7.0 63 3.4 SW 32 41 17 22 1016.0 1015.8 7.0
30/08:00am 13.6 5.6 7.4 66 3.0 SW 39 50 21 27 1015.4 1015.2 7.0
30/07:35am 13.0 4.1 7.0 67 2.9 SW 43 61 23 33 1014.9 1014.8 7.0
30/07:30am 13.3 3.9 7.1 66 3.0 SW 46 61 25 33 1014.8 1014.7 7.0
30/07:25am 13.6 5.6 7.4 66 3.0 SW 39 57 21 31 1014.6 1014.5 7.0
30/07:00am 13.8 6.8 6.9 63 3.4 SW 33 48 18 26 1014.4 1014.3 7.0
30/06:30am 13.9 6.6 7.2 64 3.3 SW 35 48 19 26 1013.8 1013.7 7.0
30/06:00am 13.8 6.9 7.3 65 3.2 SW 33 52 18 28 1013.2 1013.1 7.0
30/05:51am 13.7 7.0 7.2 65 3.2 WSW 32 50 17 27 1013.1 1013.0 7.0
30/05:30am 13.7 5.7 7.5 66 3.1 SW 39 54 21 29 1012.8 1012.7 7.0
30/05:11am 13.5 7.1 8.4 71 2.6 WSW 32 54 17 29 1012.5 1012.4 7.0
30/05:00am 12.8 6.2 7.9 72 2.4 SW 32 44 17 24 1012.5 1012.4 7.0
30/04:44am 13.8 6.9 7.3 65 3.2 WSW 33 52 18 28 1012.2 1012.1 6.8
30/04:30am 13.8 6.8 6.9 63 3.4 WSW 33 48 18 26 1012.3 1012.2 6.8
30/04:00am 13.1 6.4 7.5 69 2.7 W 32 50 17 27 1012.1 1012.0 6.8
30/03:54am 13.8 7.2 7.6 66 3.1 WSW 32 50 17 27 1012.0 1011.9 6.8
30/03:30am 13.6 6.9 7.4 66 3.0 W 32 44 17 24 1012.1 1012.0 6.8
30/03:00am 13.2 6.1 7.9 70 2.6 WSW 35 50 19 27 1012.1 1012.0 6.8
30/02:30am 13.2 5.7 6.5 64 3.2 WSW 35 61 19 33 1011.8 1011.7 6.2
30/02:00am 14.2 6.8 8.2 67 3.0 WSW 37 57 20 31 1011.6 1011.5 6.2
30/01:42am 14.0 7.1 7.1 63 3.4 WSW 33 56 18 30 1011.4 1011.3 6.2
30/01:30am 13.9 6.8 7.9 67 3.0 WSW 35 50 19 27 1011.3 1011.2 6.2
30/01:06am 13.8 6.5 7.3 65 3.2 W 35 56 19 30 1011.2 1011.1 6.0
30/01:00am 14.3 7.5 7.6 64 3.3 WSW 33 50 18 27 1011.1 1011.0 6.0
30/12:39am 14.2 7.1 8.2 67 3.0 W 35 54 19 29 1011.2 1011.1 6.0
30/12:30am 14.1 6.1 7.6 65 3.2 W 39 54 21 29 1011.0 1010.9 6.0
30/12:07am 13.2 8.0 10.4 83 1.5 WNW 28 46 15 25 1010.7 1010.6 6.0
30/12:00am 13.0 7.8 10.4 84 1.4 WNW 28 43 15 23 1010.8 1010.7 6.0
 
Date/Time
EDT
Temp
°C
App
Temp
°C
Dew
Point
°C
Rel
Hum
%
Delta-T
°C
Wind Press
QNH
hPa
Press
MSL
hPa
Rain since
9am
mm
Dir  Spd
km/h
Gust
km/h
Spd
kts
Gust
kts
29/11:30pm 12.7 7.5 10.4 86 1.2 WNW 28 43 15 23 1010.6 1010.5 6.0
29/11:00pm 12.2 8.4 9.9 86 1.2 NW 20 30 11 16 1010.4 1010.3 6.0
29/10:30pm 12.4 8.0 10.3 87 1.1 NW 24 39 13 21 1010.7 1010.6 6.0
29/10:00pm 12.3 9.2 10.2 87 1.1 NW 17 26 9 14 1010.1 1010.0 6.0
29/09:30pm 12.9 8.6 10.6 86 1.2 WNW 24 35 13 19 1010.1 1010.0 6.0
29/09:00pm 12.4 8.4 10.5 88 1.0 W 22 35 12 19 1009.4 1009.3 6.0
29/08:30pm 11.8 8.1 10.0 89 0.9 WNW 20 28 11 15 1009.1 1008.9 6.0
29/08:00pm 11.9 7.8 10.1 89 0.9 W 22 32 12 17 1009.3 1009.2 5.6
29/07:30pm 12.7 8.1 10.9 89 0.9 W 26 37 14 20 1009.3 1009.2 3.2
29/07:00pm 12.4 6.9 10.5 88 1.0 WSW 30 41 16 22 1009.0 1008.8 2.4
29/06:44pm 12.5 7.4 10.6 88 1.0 WSW 28 46 15 25 1009.0 1008.8 2.2
29/06:30pm 11.9 5.7 10.1 89 0.9 WSW 33 46 18 25 1008.8 1008.6 2.2
29/06:00pm 12.2 4.9 10.1 87 1.1 WSW 39 59 21 32 1008.6 1008.4 1.0
29/05:35pm 12.8 4.6 10.5 86 1.2 WSW 44 65 24 35 1007.9 1007.7 0.4
29/05:30pm 12.6 4.0 10.3 86 1.2 WSW 46 59 25 32 1007.7 1007.5 0.4
29/05:17pm 12.8 3.9 10.5 86 1.2 SW 48 69 26 37 1007.4 1007.2 0.4
29/05:00pm 12.8 1.0 10.5 86 1.2 SW 63 83 34 45 1006.5 1006.3 0.2
29/04:40pm 12.9 1.4 10.3 84 1.3 SW 61 83 33 45 1005.5 1005.3 0.0
29/04:36pm 12.9 2.1 10.1 83 1.4 SW 57 83 31 45 1005.3 1005.1 0.0
29/04:30pm 13.6 3.6 10.8 83 1.5 SW 54 74 29 40 1005.2 1005.0 0.0
29/04:00pm 17.4 9.9 12.1 71 2.9 W 43 78 23 42 1003.9 1003.7 0.0
29/03:56pm 18.7 13.2 12.5 67 3.5 W 33 61 18 33 1003.6 1003.4 0.0
29/03:53pm 18.9 14.0 12.6 67 3.5 W 30 46 16 25 1003.5 1003.3 0.0
29/03:30pm 20.2 17.5 12.9 63 4.1 WNW 19 28 10 15 1003.5 1003.3 0.0
29/03:00pm 19.7 16.4 12.7 64 4.0 WNW 22 35 12 19 1004.0 1003.8 0.0
29/02:30pm 20.1 15.1 12.1 60 4.5 WNW 30 48 16 26 1004.4 1004.2 0.0
29/02:26pm 20.2 15.6 12.2 60 4.5 WNW 28 46 15 25 1004.4 1004.2 0.0
29/02:00pm 19.6 15.6 13.1 66 3.7 WNW 26 41 14 22 1004.7 1004.5 0.0
29/01:30pm 19.5 16.3 13.0 66 3.7 NW 22 35 12 19 1005.1 1004.9 0.0
29/01:00pm 19.3 16.0 14.1 72 3.0 NW 24 37 13 20 1005.6 1005.4 0.0
29/12:30pm 16.8 13.2 12.9 78 2.2 NW 24 33 13 18 1005.8 1005.6 0.0
29/12:00pm 18.5 14.7 12.3 67 3.5 WNW 24 41 13 22 1006.2 1006.0 0.0
29/11:30am 19.3 15.7 13.0 67 3.6 NW 24 39 13 21 1006.4 1006.2 0.0
29/11:00am 18.3 14.6 12.7 70 3.2 NW 24 35 13 19 1006.8 1006.6 0.0
29/10:30am 17.2 12.4 11.7 70 3.0 NW 28 41 15 22 1007.2 1007.0 0.0
29/10:06am 17.9 13.1 11.5 66 3.5 NW 28 48 15 26 1007.0 1006.8 0.0
29/10:00am 18.1 14.1 11.7 66 3.5 NW 24 41 13 22 1007.0 1006.8 0.0
29/09:30am 17.3 13.1 11.1 67 3.4 NW 24 39 13 21 1006.9 1006.7 0.0
29/09:00am 17.3 12.7 11.1 67 3.4 NW 26 43 14 23 1007.1 1006.9 0.0
29/08:30am 15.9 11.9 10.4 70 2.9 NNW 22 33 12 18 1007.2 1007.0 0.0
29/08:00am 16.1 11.7 10.4 69 3.0 NW 24 35 13 19 1007.3 1007.1 0.0
29/07:30am 15.9 12.3 10.4 70 2.9 NNW 20 32 11 17 1007.2 1007.0 0.0
29/07:00am 15.3 11.6 10.3 72 2.6 NNW 20 32 11 17 1007.1 1006.9 0.0
29/06:30am 15.3 11.7 10.5 73 2.5 NNW 20 32 11 17 1007.4 1007.2 0.0
29/06:00am 15.1 11.7 10.7 75 2.3 NNW 19 28 10 15 1007.6 1007.4 0.0
29/05:30am 14.8 12.2 10.6 76 2.2 NNW 15 20 8 11 1007.9 1007.7 0.0
29/05:00am 15.0 12.7 10.4 74 2.4 NNW 13 19 7 10 1008.4 1008.2 0.0
29/04:30am 15.4 12.4 10.6 73 2.5 NNW 17 26 9 14 1008.5 1008.3 0.0
29/04:00am 15.2 11.8 10.4 73 2.5 NNW 19 26 10 14 1008.6 1008.4 0.0
29/03:30am 15.4 12.4 10.6 73 2.5 NW 17 24 9 13 1009.0 1008.8 0.0
29/03:00am 15.1 12.8 10.5 74 2.4 NNW 13 20 7 11 1009.4 1009.3 0.0
29/02:30am 14.9 12.9 10.3 74 2.4 NNW 11 19 6 10 1009.8 1009.7 0.0
29/02:00am 14.8 12.2 10.6 76 2.2 NNW 15 20 8 11 1010.1 1010.0 0.0
29/01:30am 14.9 11.9 10.7 76 2.2 NNW 17 24 9 13 1010.4 1010.3 0.0
29/01:00am 14.7 12.2 10.9 78 2.0 NW 15 20 8 11 1010.6 1010.5 0.0
29/12:30am 14.6 12.2 11.4 81 1.7 NNW 15 22 8 12 1010.9 1010.8 0.0
29/12:00am 14.3 11.9 11.3 82 1.6 NNW 15 19 8 10 1011.3 1011.2 0.0
 
Date/Time
EDT
Temp
°C
App
Temp
°C
Dew
Point
°C
Rel
Hum
%
Delta-T
°C
Wind Press
QNH
hPa
Press
MSL
hPa
Rain since
9am
mm
Dir  Spd
km/h
Gust
km/h
Spd
kts
Gust
kts
28/11:30pm 14.1 11.6 11.1 82 1.6 NNW 15 17 8 9 1011.0 1010.9 0.0
28/11:00pm 14.2 11.7 11.2 82 1.6 NNW 15 19 8 10 1011.2 1011.1 0.0
28/10:30pm 14.2 11.7 11.0 81 1.7 NNW 15 19 8 10 1011.3 1011.2 0.0
28/10:00pm 14.2 11.6 10.8 80 1.8 NNW 15 17 8 9 1011.5 1011.4 0.0
28/09:30pm 14.3 12.0 10.5 78 2.0 NNW 13 17 7 9 1011.6 1011.5 0.0
28/09:00pm 15.1 12.6 10.9 76 2.2 NW 15 17 8 9 1011.8 1011.7 0.0
28/08:30pm 15.5 13.3 10.9 74 2.5 NNW 13 19 7 10 1011.7 1011.6 0.0
28/08:00pm 16.6 13.9 11.7 73 2.7 WNW 17 26 9 14 1011.6 1011.5 0.0
28/07:30pm 16.8 13.5 11.5 71 2.9 WNW 20 30 11 16 1011.6 1011.5 0.0
28/07:00pm 17.1 13.8 11.6 70 3.0 WNW 20 28 11 15 1011.5 1011.4 0.0
28/06:30pm 17.6 13.5 11.6 68 3.3 WNW 24 32 13 17 1011.4 1011.3 0.0
28/06:00pm 17.9 14.4 12.1 69 3.2 WNW 22 32 12 17 1011.3 1011.2 0.0
28/05:30pm 18.3 14.8 12.1 67 3.4 WNW 22 33 12 18 1011.4 1011.3 0.0
28/05:00pm 18.3 15.1 11.8 66 3.6 WNW 20 32 11 17 1011.4 1011.3 0.0
28/04:30pm 18.5 14.2 10.8 61 4.2 WNW 24 35 13 19 1011.4 1011.3 0.0
28/04:00pm 18.2 14.5 11.5 65 3.7 WNW 22 33 12 18 1011.6 1011.5 0.0
28/03:30pm 18.8 13.8 10.9 60 4.3 WNW 28 41 15 22 1011.7 1011.6 0.0
28/03:00pm 18.4 12.5 11.0 62 4.0 WNW 33 43 18 23 1011.8 1011.7 0.0
28/02:30pm 18.5 12.0 10.3 59 4.4 WNW 35 52 19 28 1012.1 1012.0 0.0
28/02:20pm 18.7 13.0 11.0 61 4.2 WNW 32 50 17 27 1012.1 1012.0 0.0
28/02:00pm 18.7 13.0 11.0 61 4.2 WNW 32 43 17 23 1012.1 1012.0 0.0
28/01:30pm 18.6 12.5 9.9 57 4.6 WNW 32 43 17 23 1012.4 1012.3 0.0
28/01:00pm 18.3 12.8 10.4 60 4.2 WNW 30 43 16 23 1012.8 1012.7 0.0
28/12:30pm 18.0 12.7 12.5 70 3.1 WNW 32 46 17 25 1012.9 1012.8 0.0
28/12:00pm 18.1 13.0 11.9 67 3.4 WNW 30 43 16 23 1013.0 1012.9 0.0
28/11:30am 17.5 12.3 11.5 68 3.3 WNW 30 43 16 23 1013.3 1013.2 0.0
28/11:00am 17.2 13.2 11.7 70 3.0 WNW 24 37 13 20 1013.4 1013.3 0.0
28/10:30am 16.9 12.5 11.6 71 2.9 WNW 26 37 14 20 1013.3 1013.2 0.0
28/10:00am 16.4 11.4 11.1 71 2.9 WNW 28 41 15 22 1013.2 1013.1 0.0

Other Formats:

Comma delimited format used in spreadsheet applications
http://www.bom.gov.au/fwo/IDV60801/IDV60801.94842.axf

JavaScript Object Notation format (JSON) in row-major order
http://www.bom.gov.au/fwo/IDV60801/IDV60801.94842.json